createdAt,value
2022-10-19T00:01:31.210Z,9.89
2022-10-19T00:03:58.748Z,9.88
2022-10-19T00:06:28.251Z,9.86
2022-10-19T00:08:57.039Z,9.82
2022-10-19T00:11:24.134Z,9.79
2022-10-19T00:13:51.191Z,9.76
2022-10-19T00:16:18.466Z,9.72
2022-10-19T00:18:46.092Z,9.69
2022-10-19T00:21:15.862Z,9.65
2022-10-19T00:23:42.672Z,9.61
2022-10-19T00:26:09.637Z,9.59
2022-10-19T00:28:36.375Z,9.55
2022-10-19T00:31:08.762Z,9.53
2022-10-19T00:33:35.613Z,9.50
2022-10-19T00:36:02.717Z,9.45
2022-10-19T00:38:29.076Z,9.42
2022-10-19T00:40:55.730Z,9.40
2022-10-19T00:43:28.853Z,9.39
2022-10-19T00:45:55.213Z,9.37
2022-10-19T00:48:27.944Z,9.37
2022-10-19T00:50:58.300Z,9.36
2022-10-19T00:53:27.349Z,9.34
2022-10-19T00:55:54.312Z,9.32
2022-10-19T00:58:20.789Z,9.31
2022-10-19T01:00:47.286Z,9.29
2022-10-19T01:03:14.380Z,9.28
2022-10-19T01:05:41.179Z,9.28
2022-10-19T01:08:09.940Z,9.26
2022-10-19T01:11:03.415Z,9.23
2022-10-19T01:13:55.982Z,9.21
2022-10-19T01:16:37.994Z,9.19
2022-10-19T01:19:42.026Z,9.16
2022-10-19T01:22:36.467Z,9.13
2022-10-19T01:25:20.744Z,9.11
2022-10-19T01:28:04.319Z,9.08
2022-10-19T01:30:46.983Z,9.06
2022-10-19T01:33:28.326Z,9.05
2022-10-19T01:36:13.169Z,9.04
2022-10-19T01:39:01.452Z,9.00
2022-10-19T01:41:35.374Z,8.99
2022-10-19T01:44:13.766Z,8.97
2022-10-19T01:46:43.916Z,8.95
2022-10-19T01:49:16.162Z,8.91
2022-10-19T01:51:49.786Z,8.90
2022-10-19T01:54:18.640Z,8.86
2022-10-19T01:56:48.330Z,8.83
2022-10-19T01:59:18.398Z,8.79
2022-10-19T02:01:47.312Z,8.76
2022-10-19T02:04:18.559Z,8.73
2022-10-19T02:06:44.969Z,8.68
2022-10-19T02:09:17.971Z,8.66
2022-10-19T02:11:49.630Z,8.63
2022-10-19T02:14:22.274Z,8.62
2022-10-19T02:16:59.211Z,8.60
2022-10-19T02:19:25.691Z,8.58
2022-10-19T02:21:52.429Z,8.56
2022-10-19T02:24:18.820Z,8.54
2022-10-19T02:26:45.902Z,8.53
2022-10-19T02:29:15.014Z,8.53
2022-10-19T02:31:41.691Z,8.53
2022-10-19T02:34:08.294Z,8.52
2022-10-19T02:36:34.840Z,8.54
2022-10-19T02:39:01.248Z,8.56
2022-10-19T02:41:33.723Z,8.60
2022-10-19T02:44:17.878Z,8.64
2022-10-19T02:46:48.251Z,8.67
2022-10-19T02:49:15.766Z,8.71
2022-10-19T02:52:04.336Z,8.77
2022-10-19T02:54:30.865Z,8.84
2022-10-19T02:56:57.415Z,8.88
2022-10-19T02:59:24.672Z,8.93
2022-10-19T03:01:51.394Z,8.98
2022-10-19T03:04:18.547Z,9.05
2022-10-19T03:06:44.924Z,9.09
2022-10-19T03:09:11.339Z,9.13
2022-10-19T03:11:37.880Z,9.19
2022-10-19T03:14:04.226Z,9.22
2022-10-19T03:16:30.551Z,9.26
2022-10-19T03:18:56.947Z,9.30
2022-10-19T03:21:23.330Z,9.34
2022-10-19T03:23:49.681Z,9.36
2022-10-19T03:26:17.846Z,9.39
2022-10-19T03:28:44.248Z,9.42
2022-10-19T03:31:10.684Z,9.45
2022-10-19T03:33:37.017Z,9.48
2022-10-19T03:36:23.303Z,9.53
2022-10-19T03:38:50.683Z,9.59
2022-10-19T03:41:17.135Z,9.61
2022-10-19T03:43:43.530Z,9.61
2022-10-19T03:46:09.859Z,9.61
2022-10-19T03:48:36.355Z,9.61
2022-10-19T03:51:09.273Z,9.60
2022-10-19T03:53:36.432Z,9.60
2022-10-19T03:56:05.433Z,9.57
2022-10-19T03:58:33.446Z,9.56
2022-10-19T04:01:00.512Z,9.54
2022-10-19T04:03:26.950Z,9.52
2022-10-19T04:06:02.585Z,9.51
2022-10-19T04:08:29.119Z,9.52
2022-10-19T04:11:08.535Z,9.51
2022-10-19T04:13:35.655Z,9.51
2022-10-19T04:16:02.293Z,9.52
2022-10-19T04:18:28.718Z,9.52
2022-10-19T04:21:00.280Z,9.55
2022-10-19T04:23:29.179Z,9.57
2022-10-19T04:26:03.070Z,9.59
2022-10-19T04:28:30.107Z,9.58
2022-10-19T04:30:56.536Z,9.61
2022-10-19T04:33:23.603Z,9.61
2022-10-19T04:35:49.948Z,9.63
2022-10-19T04:38:16.282Z,9.65
2022-10-19T04:40:42.812Z,9.67
2022-10-19T04:43:09.252Z,9.70
2022-10-19T04:45:35.921Z,9.72
2022-10-19T04:48:02.355Z,9.74
2022-10-19T04:50:28.806Z,9.75
2022-10-19T04:52:55.153Z,9.79
2022-10-19T04:55:21.798Z,9.82
2022-10-19T04:57:48.370Z,9.86
2022-10-19T05:00:15.192Z,9.89
2022-10-19T05:02:45.962Z,9.95
2022-10-19T05:05:13.364Z,9.97
2022-10-19T05:07:40.173Z,10.02
2022-10-19T05:10:08.391Z,10.06
2022-10-19T05:12:35.676Z,10.09
2022-10-19T05:15:02.323Z,10.14
2022-10-19T05:17:32.539Z,10.19
2022-10-19T05:19:59.174Z,10.22
2022-10-19T05:22:25.501Z,10.26
2022-10-19T05:24:54.547Z,10.31
2022-10-19T05:27:23.871Z,10.35
2022-10-19T05:29:50.219Z,10.38
2022-10-19T05:32:16.702Z,10.42
2022-10-19T05:34:43.207Z,10.45
2022-10-19T05:37:09.540Z,10.49
2022-10-19T05:39:35.922Z,10.52
2022-10-19T05:42:02.311Z,10.54
2022-10-19T05:44:28.765Z,10.55
2022-10-19T05:46:55.159Z,10.59
2022-10-19T05:49:22.343Z,10.60
2022-10-19T05:51:49.790Z,10.62
2022-10-19T05:54:17.146Z,10.66
2022-10-19T05:56:44.602Z,10.69
2022-10-19T05:59:15.053Z,10.75
2022-10-19T06:01:41.480Z,10.79
2022-10-19T06:04:07.937Z,10.85
2022-10-19T06:06:34.793Z,10.91
2022-10-19T06:09:01.198Z,10.96
2022-10-19T06:11:34.951Z,11.03
2022-10-19T06:14:04.091Z,11.08
2022-10-19T06:16:32.190Z,11.16
2022-10-19T06:18:59.680Z,11.20
2022-10-19T06:21:29.026Z,11.25
2022-10-19T06:23:57.807Z,11.28
2022-10-19T06:26:25.264Z,11.30
2022-10-19T06:28:54.358Z,11.32
2022-10-19T06:31:20.681Z,11.32
2022-10-19T06:33:49.388Z,11.32
2022-10-19T06:36:19.409Z,11.32
2022-10-19T06:38:46.364Z,11.28
2022-10-19T06:41:13.002Z,11.25
2022-10-19T06:43:39.420Z,11.23
2022-10-19T06:46:10.894Z,11.21
2022-10-19T06:48:37.429Z,11.22
2022-10-19T06:51:07.406Z,11.24
2022-10-19T06:53:35.612Z,11.24
2022-10-19T06:56:04.585Z,11.27
2022-10-19T06:58:31.097Z,11.32
2022-10-19T07:00:59.266Z,11.35
2022-10-19T07:03:27.267Z,11.40
2022-10-19T07:06:00.859Z,11.47
2022-10-19T07:08:29.647Z,11.52
2022-10-19T07:10:58.309Z,11.57
2022-10-19T07:13:25.942Z,11.63
2022-10-19T07:15:58.814Z,11.71
2022-10-19T07:18:26.483Z,11.76
2022-10-19T07:21:01.240Z,11.85
2022-10-19T07:23:29.310Z,11.91
2022-10-19T07:26:00.966Z,11.98
2022-10-19T07:28:29.286Z,12.06
2022-10-19T07:30:56.138Z,12.15
2022-10-19T07:33:22.603Z,12.23
2022-10-19T07:35:49.098Z,12.32
2022-10-19T07:38:15.487Z,12.42
2022-10-19T07:40:44.875Z,12.51
2022-10-19T07:43:13.715Z,12.60
2022-10-19T07:45:40.096Z,12.68
2022-10-19T07:48:06.593Z,12.74
2022-10-19T07:50:32.985Z,12.83
2022-10-19T07:52:59.353Z,12.90
2022-10-19T07:55:25.674Z,12.98
2022-10-19T07:57:52.132Z,13.04
2022-10-19T08:00:18.574Z,13.10
2022-10-19T08:02:59.649Z,13.18
2022-10-19T08:05:34.720Z,13.31
2022-10-19T08:08:01.175Z,13.38
2022-10-19T08:10:27.742Z,13.45
2022-10-19T08:12:54.108Z,13.51
2022-10-19T08:15:20.450Z,13.59
2022-10-19T08:17:47.003Z,13.68
2022-10-19T08:20:13.404Z,13.75
2022-10-19T08:22:46.761Z,13.85
2022-10-19T08:25:13.124Z,13.92
2022-10-19T08:27:39.468Z,13.99
2022-10-19T08:30:06.195Z,14.07
2022-10-19T08:32:33.006Z,14.13
2022-10-19T08:34:59.568Z,14.19
2022-10-19T08:37:43.816Z,14.22
2022-10-19T08:40:25.833Z,14.28
2022-10-19T08:43:01.707Z,14.33
2022-10-19T08:48:20.472Z,14.45
2022-10-19T08:50:48.320Z,14.52
2022-10-19T08:53:24.695Z,14.57
2022-10-19T08:55:54.413Z,14.64
2022-10-19T08:58:46.753Z,14.70
2022-10-19T09:01:21.365Z,14.77
2022-10-19T09:03:59.717Z,14.84
2022-10-19T09:06:45.429Z,14.93
2022-10-19T09:09:15.493Z,15.00
2022-10-19T09:11:47.170Z,15.08
2022-10-19T09:14:20.722Z,15.15
2022-10-19T09:16:47.206Z,15.19
2022-10-19T09:19:26.203Z,15.25
2022-10-19T09:22:00.314Z,15.31
2022-10-19T09:24:45.931Z,15.35
2022-10-19T09:27:33.319Z,15.43
2022-10-19T09:30:05.721Z,15.46
2022-10-19T09:32:37.907Z,15.50
2022-10-19T09:35:36.110Z,15.56
2022-10-19T09:38:05.862Z,15.58
2022-10-19T09:40:33.663Z,15.59
2022-10-19T09:43:08.566Z,15.62
2022-10-19T09:45:37.975Z,15.63
2022-10-19T09:48:16.565Z,15.63
2022-10-19T09:50:44.668Z,15.63
2022-10-19T09:53:20.189Z,15.66
2022-10-19T09:56:07.807Z,15.71
2022-10-19T09:58:47.279Z,15.75
2022-10-19T10:01:41.704Z,15.82
2022-10-19T10:04:17.832Z,15.88
2022-10-19T10:06:47.931Z,15.92
2022-10-19T10:09:17.437Z,15.98
2022-10-19T10:11:48.122Z,16.03
2022-10-19T10:14:21.558Z,16.11
2022-10-19T10:16:48.218Z,16.16
2022-10-19T10:19:17.001Z,16.22
2022-10-19T10:21:54.463Z,16.27
2022-10-19T10:24:25.902Z,16.29
2022-10-19T10:26:53.783Z,16.31
2022-10-19T10:29:25.163Z,16.33
2022-10-19T10:32:00.349Z,16.35
2022-10-19T10:34:50.185Z,16.40
2022-10-19T10:37:21.763Z,16.48
2022-10-19T10:39:52.810Z,16.54
2022-10-19T10:42:26.999Z,16.60
2022-10-19T10:44:56.236Z,16.64
2022-10-19T10:47:23.105Z,16.71
2022-10-19T10:50:02.890Z,16.78
2022-10-19T10:52:33.475Z,16.84
2022-10-19T10:55:10.875Z,16.87
2022-10-19T10:57:46.642Z,16.91
2022-10-19T11:00:21.547Z,16.95
2022-10-19T11:02:47.846Z,16.97
2022-10-19T11:05:20.342Z,17.03
2022-10-19T11:07:53.042Z,17.08
2022-10-19T11:10:35.228Z,17.15
2022-10-19T11:13:28.751Z,17.24
2022-10-19T11:16:11.180Z,17.32
2022-10-19T11:18:49.970Z,17.44
2022-10-19T11:21:42.482Z,17.57
2022-10-19T11:24:35.417Z,17.69
2022-10-19T11:27:15.561Z,17.82
2022-10-19T11:30:10.842Z,17.94
2022-10-19T11:33:01.611Z,18.01
2022-10-19T11:35:54.446Z,18.08
2022-10-19T11:38:35.075Z,18.08
2022-10-19T11:41:26.371Z,18.03
2022-10-19T11:44:14.519Z,17.96
2022-10-19T11:46:59.781Z,17.87
2022-10-19T11:49:38.383Z,17.81
2022-10-19T11:52:16.051Z,17.77
2022-10-19T11:55:06.418Z,17.75
2022-10-19T11:57:43.483Z,17.75
2022-10-19T12:00:21.178Z,17.73
2022-10-19T12:03:08.976Z,17.76
2022-10-19T12:05:56.096Z,17.76
2022-10-19T12:08:51.192Z,17.72
2022-10-19T12:11:51.539Z,17.66
2022-10-19T12:14:24.211Z,17.57
2022-10-19T12:16:55.279Z,17.48
2022-10-19T12:19:36.986Z,17.39
2022-10-19T12:22:06.915Z,17.29
2022-10-19T12:24:34.342Z,17.24
2022-10-19T12:27:01.907Z,17.20
2022-10-19T12:29:37.462Z,17.17
2022-10-19T12:32:05.881Z,17.15
2022-10-19T12:34:52.521Z,17.17
2022-10-19T12:37:25.058Z,17.18
2022-10-19T12:40:38.203Z,17.20
2022-10-19T12:43:17.143Z,17.23
2022-10-19T12:45:51.618Z,17.27
2022-10-19T12:48:20.649Z,17.32
2022-10-19T12:50:50.117Z,17.39
2022-10-19T12:56:05.367Z,17.49
2022-10-19T12:58:47.682Z,17.53
2022-10-19T13:01:26.761Z,17.58
2022-10-19T13:04:07.534Z,17.61
2022-10-19T13:06:36.787Z,17.63
2022-10-19T13:09:06.522Z,17.67
2022-10-19T13:14:10.888Z,17.75
2022-10-19T13:16:37.266Z,17.77
2022-10-19T13:19:12.966Z,17.82
2022-10-19T13:22:01.395Z,17.84
2022-10-19T13:24:34.752Z,17.86
2022-10-19T13:27:04.104Z,17.88
2022-10-19T13:29:39.728Z,17.89
2022-10-19T13:32:40.445Z,17.91
2022-10-19T13:35:32.718Z,17.92
2022-10-19T13:38:17.520Z,17.95
2022-10-19T13:40:49.742Z,17.97
2022-10-19T13:43:28.982Z,18.01
2022-10-19T13:46:03.449Z,18.04
2022-10-19T13:48:37.339Z,18.02
2022-10-19T13:51:20.062Z,18.01
2022-10-19T13:54:20.548Z,17.99
2022-10-19T13:57:16.282Z,17.98
2022-10-19T14:00:13.621Z,17.97
2022-10-19T14:03:13.232Z,17.92
2022-10-19T14:05:53.592Z,17.87
2022-10-19T14:08:41.451Z,17.77
2022-10-19T14:11:17.853Z,17.67
2022-10-19T14:13:44.547Z,17.58
2022-10-19T14:16:21.768Z,17.50
2022-10-19T14:18:55.909Z,17.42
2022-10-19T14:21:41.172Z,17.34
2022-10-19T14:24:38.834Z,17.30
2022-10-19T14:27:07.653Z,17.24
2022-10-19T14:29:44.315Z,17.22
2022-10-19T14:32:12.116Z,17.17
2022-10-19T14:34:43.579Z,17.16
2022-10-19T14:37:22.160Z,17.12
2022-10-19T14:39:59.808Z,17.09
2022-10-19T14:42:39.703Z,17.06
2022-10-19T14:45:12.149Z,17.02
2022-10-19T14:47:51.310Z,17.00
2022-10-19T14:50:18.595Z,16.96
2022-10-19T14:52:45.690Z,16.92
2022-10-19T14:55:17.985Z,16.89
2022-10-19T14:57:47.540Z,16.87
2022-10-19T15:00:22.645Z,16.85
2022-10-19T15:03:09.533Z,16.82
2022-10-19T15:05:51.521Z,16.80
2022-10-19T15:08:27.827Z,16.77
2022-10-19T15:10:54.223Z,16.71
2022-10-19T15:13:28.498Z,16.67
2022-10-19T15:15:55.745Z,16.62
2022-10-19T15:18:47.805Z,16.56
2022-10-19T15:21:17.753Z,16.49
2022-10-19T15:23:51.873Z,16.43
2022-10-19T15:26:18.224Z,16.37
2022-10-19T15:28:45.116Z,16.30
2022-10-19T15:31:30.077Z,16.26
2022-10-19T15:34:01.911Z,16.19
2022-10-19T15:36:30.340Z,16.12
2022-10-19T15:39:18.482Z,16.07
2022-10-19T15:41:51.398Z,15.99
2022-10-19T15:44:53.392Z,15.93
2022-10-19T15:47:23.172Z,15.88
2022-10-19T15:49:55.763Z,15.82
2022-10-19T15:52:23.964Z,15.73
2022-10-19T15:54:52.657Z,15.66
2022-10-19T15:57:32.790Z,15.60
2022-10-19T16:00:06.704Z,15.53
2022-10-19T16:02:33.014Z,15.44
2022-10-19T16:04:59.402Z,15.37
2022-10-19T16:07:29.122Z,15.31
2022-10-19T16:09:55.911Z,15.24
2022-10-19T16:12:23.279Z,15.16
2022-10-19T16:14:49.669Z,15.10
2022-10-19T16:17:16.312Z,15.04
2022-10-19T16:19:44.017Z,14.96
2022-10-19T16:22:11.662Z,14.89
2022-10-19T16:24:38.147Z,14.82
2022-10-19T16:27:05.602Z,14.74
2022-10-19T16:29:32.080Z,14.68
2022-10-19T16:31:58.987Z,14.59
2022-10-19T16:34:25.385Z,14.53
2022-10-19T16:36:51.887Z,14.47
2022-10-19T16:39:18.593Z,14.39
2022-10-19T16:41:44.983Z,14.33
2022-10-19T16:44:12.562Z,14.24
2022-10-19T16:46:39.276Z,14.18
2022-10-19T16:49:05.691Z,14.12
2022-10-19T16:51:41.834Z,14.05
2022-10-19T16:54:10.720Z,13.99
2022-10-19T16:56:47.774Z,13.94
2022-10-19T16:59:16.686Z,13.88
2022-10-19T17:01:44.414Z,13.83
2022-10-19T17:04:12.103Z,13.75
2022-10-19T17:06:38.698Z,13.69
2022-10-19T17:11:51.953Z,13.58
2022-10-19T17:14:18.380Z,13.52
2022-10-19T17:16:45.714Z,13.46
2022-10-19T17:19:12.097Z,13.42
2022-10-19T17:21:39.404Z,13.36
2022-10-19T17:24:08.759Z,13.33
2022-10-19T17:26:38.010Z,13.29
2022-10-19T17:29:06.074Z,13.24
2022-10-19T17:31:32.854Z,13.20
2022-10-19T17:34:00.616Z,13.15
2022-10-19T17:36:29.356Z,13.11
2022-10-19T17:38:58.489Z,13.08
2022-10-19T17:41:26.526Z,13.04
2022-10-19T17:43:53.488Z,13.00
2022-10-19T17:46:26.023Z,12.97
2022-10-19T17:48:52.355Z,12.92
2022-10-19T17:51:21.502Z,12.91
2022-10-19T17:53:50.468Z,12.86
2022-10-19T17:56:19.699Z,12.84
2022-10-19T17:58:47.069Z,12.79
2022-10-19T18:01:14.863Z,12.74
2022-10-19T18:03:41.706Z,12.71
2022-10-19T18:06:14.626Z,12.68
2022-10-19T18:08:43.616Z,12.63
2022-10-19T18:11:11.911Z,12.58
2022-10-19T18:13:39.593Z,12.54
2022-10-19T18:16:12.054Z,12.50
2022-10-19T18:18:40.666Z,12.46
2022-10-19T18:21:11.402Z,12.43
2022-10-19T18:23:37.979Z,12.39
2022-10-19T18:26:07.445Z,12.36
2022-10-19T18:28:34.041Z,12.34
2022-10-19T18:31:11.678Z,12.32
2022-10-19T18:33:38.827Z,12.29
2022-10-19T18:36:06.657Z,12.26
2022-10-19T18:38:33.306Z,12.25
2022-10-19T18:41:03.711Z,12.25
2022-10-19T18:43:30.429Z,12.22
2022-10-19T18:45:58.660Z,12.22
2022-10-19T18:48:27.323Z,12.21
2022-10-19T18:50:53.903Z,12.19
2022-10-19T18:53:20.961Z,12.17
2022-10-19T18:55:59.957Z,12.17
2022-10-19T18:58:27.074Z,12.15
2022-10-19T19:01:02.668Z,12.15
2022-10-19T19:03:29.014Z,12.13
2022-10-19T19:05:59.278Z,12.10
2022-10-19T19:08:25.827Z,12.09
2022-10-19T19:10:52.260Z,12.08
2022-10-19T19:13:18.610Z,12.07
2022-10-19T19:15:44.995Z,12.07
2022-10-19T19:18:11.422Z,12.07
2022-10-19T19:20:40.335Z,12.09
2022-10-19T19:23:06.879Z,12.08
2022-10-19T19:25:33.225Z,12.09
2022-10-19T19:27:59.659Z,12.09
2022-10-19T19:30:27.771Z,12.09
2022-10-19T19:32:54.130Z,12.09
2022-10-19T19:35:20.469Z,12.08
2022-10-19T19:37:46.801Z,12.07
2022-10-19T19:40:13.156Z,12.08
2022-10-19T19:42:39.595Z,12.06
2022-10-19T19:45:06.413Z,12.05
2022-10-19T19:47:33.007Z,12.04
2022-10-19T19:49:59.680Z,12.03
2022-10-19T19:52:26.023Z,12.03
2022-10-19T19:54:52.423Z,12.02
2022-10-19T19:57:18.862Z,12.01
2022-10-19T19:59:45.239Z,11.99
2022-10-19T20:02:11.661Z,11.97
2022-10-19T20:04:38.051Z,11.97
2022-10-19T20:07:05.012Z,11.96
2022-10-19T20:09:31.434Z,11.95
2022-10-19T20:11:57.836Z,11.94
2022-10-19T20:14:24.318Z,11.91
2022-10-19T20:16:50.708Z,11.90
2022-10-19T20:19:17.072Z,11.87
2022-10-19T20:21:43.438Z,11.86
2022-10-19T20:24:10.461Z,11.84
2022-10-19T20:26:37.405Z,11.82
2022-10-19T20:29:04.927Z,11.80
2022-10-19T20:31:33.337Z,11.78
2022-10-19T20:33:59.813Z,11.77
2022-10-19T20:36:26.556Z,11.74
2022-10-19T20:38:58.182Z,11.73
2022-10-19T20:41:26.903Z,11.70
2022-10-19T20:43:54.176Z,11.68
2022-10-19T20:46:29.137Z,11.66
2022-10-19T20:48:57.986Z,11.63
2022-10-19T20:51:30.996Z,11.61
2022-10-19T20:53:59.955Z,11.58
2022-10-19T20:56:29.473Z,11.56
2022-10-19T20:59:00.532Z,11.52
2022-10-19T21:01:29.010Z,11.50
2022-10-19T21:03:59.030Z,11.47
2022-10-19T21:06:27.138Z,11.44
2022-10-19T21:08:53.596Z,11.42
2022-10-19T21:11:24.213Z,11.40
2022-10-19T21:13:56.257Z,11.37
2022-10-19T21:16:27.386Z,11.34
2022-10-19T21:18:54.407Z,11.32
2022-10-19T21:21:27.278Z,11.30
2022-10-19T21:23:59.386Z,11.28
2022-10-19T21:26:29.278Z,11.25
2022-10-19T21:28:56.122Z,11.23
2022-10-19T21:31:23.871Z,11.20
2022-10-19T21:33:51.649Z,11.17
2022-10-19T21:36:19.300Z,11.14
2022-10-19T21:38:45.631Z,11.10
2022-10-19T21:41:26.169Z,11.08
2022-10-19T21:43:53.377Z,11.05
2022-10-19T21:46:21.655Z,11.02
2022-10-19T21:48:48.921Z,10.98
2022-10-19T21:51:37.354Z,10.96
2022-10-19T21:54:06.104Z,10.94
2022-10-19T21:56:33.909Z,10.91
2022-10-19T21:59:00.496Z,10.89
2022-10-19T22:01:29.471Z,10.88
2022-10-19T22:03:57.746Z,10.87
2022-10-19T22:06:25.386Z,10.84
2022-10-19T22:08:52.020Z,10.85
2022-10-19T22:11:18.510Z,10.84
2022-10-19T22:13:44.880Z,10.83
2022-10-19T22:16:14.411Z,10.83
2022-10-19T22:18:41.171Z,10.83
2022-10-19T22:21:10.633Z,10.83
2022-10-19T22:23:37.607Z,10.83
2022-10-19T22:26:14.875Z,10.84
2022-10-19T22:28:41.553Z,10.82
2022-10-19T22:31:08.511Z,10.82
2022-10-19T22:33:35.516Z,10.81
2022-10-19T22:36:04.376Z,10.82
2022-10-19T22:38:30.735Z,10.82
2022-10-19T22:40:57.129Z,10.81
2022-10-19T22:43:23.535Z,10.81
2022-10-19T22:45:50.276Z,10.81
2022-10-19T22:48:17.812Z,10.81
2022-10-19T22:50:44.705Z,10.79
2022-10-19T22:53:11.727Z,10.78
2022-10-19T22:55:38.132Z,10.77
2022-10-19T22:58:05.810Z,10.77
2022-10-19T23:00:32.419Z,10.76
2022-10-19T23:02:58.898Z,10.75
2022-10-19T23:05:25.244Z,10.74
2022-10-19T23:07:51.591Z,10.73
2022-10-19T23:10:18.134Z,10.72
2022-10-19T23:12:48.839Z,10.73
2022-10-19T23:15:15.216Z,10.70
2022-10-19T23:17:41.551Z,10.70
2022-10-19T23:20:08.416Z,10.70
2022-10-19T23:22:34.751Z,10.69
2022-10-19T23:25:01.093Z,10.69
2022-10-19T23:27:27.462Z,10.68
2022-10-19T23:29:53.817Z,10.67
2022-10-19T23:32:20.395Z,10.65
2022-10-19T23:34:48.420Z,10.63
2022-10-19T23:37:15.031Z,10.62
2022-10-19T23:39:41.599Z,10.60
2022-10-19T23:42:07.939Z,10.58
2022-10-19T23:44:34.320Z,10.56
2022-10-19T23:47:00.653Z,10.54
2022-10-19T23:49:27.049Z,10.53
2022-10-19T23:51:53.590Z,10.52
2022-10-19T23:54:19.901Z,10.51
2022-10-19T23:56:46.254Z,10.51
2022-10-19T23:59:12.608Z,10.49
